sensor_id;sensor_type;location;lat;lon;timestamp;P1;durP1;ratioP1;P2;durP2;ratioP2
4206;SDS011;2117;47.972;7.830;2024-02-26T00:01:10;1.20;;;0.60;;
4206;SDS011;2117;47.972;7.830;2024-02-26T00:03:35;4.10;;;0.70;;
4206;SDS011;2117;47.972;7.830;2024-02-26T00:06:01;1.30;;;0.67;;
4206;SDS011;2117;47.972;7.830;2024-02-26T00:08:27;1.83;;;0.97;;
4206;SDS011;2117;47.972;7.830;2024-02-26T00:10:53;2.20;;;1.20;;
4206;SDS011;2117;47.972;7.830;2024-02-26T00:13:19;3.77;;;1.60;;
4206;SDS011;2117;47.972;7.830;2024-02-26T00:15:45;2.27;;;1.20;;
4206;SDS011;2117;47.972;7.830;2024-02-26T00:18:11;2.20;;;1.33;;
4206;SDS011;2117;47.972;7.830;2024-02-26T00:20:36;1.10;;;0.60;;
4206;SDS011;2117;47.972;7.830;2024-02-26T00:23:02;5.20;;;0.70;;
4206;SDS011;2117;47.972;7.830;2024-02-26T00:25:28;2.17;;;0.70;;
4206;SDS011;2117;47.972;7.830;2024-02-26T00:27:53;1.30;;;0.60;;
4206;SDS011;2117;47.972;7.830;2024-02-26T00:30:19;1.30;;;0.60;;
4206;SDS011;2117;47.972;7.830;2024-02-26T00:32:44;1.10;;;0.50;;
4206;SDS011;2117;47.972;7.830;2024-02-26T00:35:10;1.30;;;0.73;;
4206;SDS011;2117;47.972;7.830;2024-02-26T00:37:35;1.23;;;0.60;;
4206;SDS011;2117;47.972;7.830;2024-02-26T00:40:01;1.57;;;0.50;;
4206;SDS011;2117;47.972;7.830;2024-02-26T00:42:27;1.20;;;0.60;;
4206;SDS011;2117;47.972;7.830;2024-02-26T00:44:52;1.27;;;0.60;;
4206;SDS011;2117;47.972;7.830;2024-02-26T00:47:18;1.30;;;0.80;;
4206;SDS011;2117;47.972;7.830;2024-02-26T00:49:44;1.67;;;0.70;;
4206;SDS011;2117;47.972;7.830;2024-02-26T00:52:09;1.97;;;0.70;;
4206;SDS011;2117;47.972;7.830;2024-02-26T00:54:35;1.40;;;0.80;;
4206;SDS011;2117;47.972;7.830;2024-02-26T00:57:00;1.10;;;0.50;;
4206;SDS011;2117;47.972;7.830;2024-02-26T00:59:26;1.17;;;0.60;;
4206;SDS011;2117;47.972;7.830;2024-02-26T01:01:51;1.80;;;0.90;;
4206;SDS011;2117;47.972;7.830;2024-02-26T01:04:17;1.37;;;0.90;;
4206;SDS011;2117;47.972;7.830;2024-02-26T01:06:43;2.00;;;0.60;;
4206;SDS011;2117;47.972;7.830;2024-02-26T01:09:08;1.10;;;0.63;;
4206;SDS011;2117;47.972;7.830;2024-02-26T01:11:34;1.67;;;0.70;;
4206;SDS011;2117;47.972;7.830;2024-02-26T01:13:59;2.20;;;0.70;;
4206;SDS011;2117;47.972;7.830;2024-02-26T01:16:25;2.87;;;0.80;;
4206;SDS011;2117;47.972;7.830;2024-02-26T01:18:53;1.80;;;0.77;;
4206;SDS011;2117;47.972;7.830;2024-02-26T01:21:19;1.27;;;0.80;;
4206;SDS011;2117;47.972;7.830;2024-02-26T01:23:44;1.13;;;0.70;;
4206;SDS011;2117;47.972;7.830;2024-02-26T01:26:10;2.23;;;0.77;;
4206;SDS011;2117;47.972;7.830;2024-02-26T01:28:36;1.43;;;0.60;;
4206;SDS011;2117;47.972;7.830;2024-02-26T01:31:01;1.37;;;0.80;;
4206;SDS011;2117;47.972;7.830;2024-02-26T01:33:30;1.30;;;0.70;;
4206;SDS011;2117;47.972;7.830;2024-02-26T01:35:58;1.20;;;0.60;;
4206;SDS011;2117;47.972;7.830;2024-02-26T01:38:23;1.30;;;0.73;;
4206;SDS011;2117;47.972;7.830;2024-02-26T01:40:49;1.83;;;0.70;;
4206;SDS011;2117;47.972;7.830;2024-02-26T01:43:14;1.50;;;0.60;;
4206;SDS011;2117;47.972;7.830;2024-02-26T01:45:40;1.60;;;0.70;;
4206;SDS011;2117;47.972;7.830;2024-02-26T01:48:05;2.10;;;0.70;;
4206;SDS011;2117;47.972;7.830;2024-02-26T01:50:32;1.80;;;1.00;;
4206;SDS011;2117;47.972;7.830;2024-02-26T01:52:59;1.50;;;0.80;;
4206;SDS011;2117;47.972;7.830;2024-02-26T01:55:25;1.17;;;0.60;;
4206;SDS011;2117;47.972;7.830;2024-02-26T01:57:51;1.40;;;0.70;;
4206;SDS011;2117;47.972;7.830;2024-02-26T02:00:17;5.60;;;0.83;;
4206;SDS011;2117;47.972;7.830;2024-02-26T02:02:44;2.70;;;0.70;;
4206;SDS011;2117;47.972;7.830;2024-02-26T02:05:13;1.20;;;0.60;;
4206;SDS011;2117;47.972;7.830;2024-02-26T02:07:41;1.70;;;0.70;;
4206;SDS011;2117;47.972;7.830;2024-02-26T02:10:07;1.10;;;0.70;;
4206;SDS011;2117;47.972;7.830;2024-02-26T02:12:33;1.10;;;0.60;;
4206;SDS011;2117;47.972;7.830;2024-02-26T02:14:59;1.50;;;0.73;;
4206;SDS011;2117;47.972;7.830;2024-02-26T02:17:26;1.37;;;0.87;;
4206;SDS011;2117;47.972;7.830;2024-02-26T02:19:52;1.40;;;0.90;;
4206;SDS011;2117;47.972;7.830;2024-02-26T02:22:18;1.10;;;0.60;;
4206;SDS011;2117;47.972;7.830;2024-02-26T02:24:44;1.20;;;0.60;;
4206;SDS011;2117;47.972;7.830;2024-02-26T02:27:10;2.20;;;0.80;;
4206;SDS011;2117;47.972;7.830;2024-02-26T02:29:36;1.37;;;0.83;;
4206;SDS011;2117;47.972;7.830;2024-02-26T02:32:02;2.17;;;0.90;;
4206;SDS011;2117;47.972;7.830;2024-02-26T02:34:29;1.47;;;0.70;;
4206;SDS011;2117;47.972;7.830;2024-02-26T02:36:56;1.40;;;0.70;;
4206;SDS011;2117;47.972;7.830;2024-02-26T02:39:22;1.53;;;0.77;;
4206;SDS011;2117;47.972;7.830;2024-02-26T02:41:47;2.33;;;0.93;;
4206;SDS011;2117;47.972;7.830;2024-02-26T02:44:13;1.90;;;1.10;;
4206;SDS011;2117;47.972;7.830;2024-02-26T02:46:38;1.97;;;0.80;;
4206;SDS011;2117;47.972;7.830;2024-02-26T02:49:07;1.17;;;0.60;;
4206;SDS011;2117;47.972;7.830;2024-02-26T02:51:34;1.10;;;0.60;;
4206;SDS011;2117;47.972;7.830;2024-02-26T02:54:00;1.37;;;0.73;;
4206;SDS011;2117;47.972;7.830;2024-02-26T02:56:25;3.23;;;0.87;;
4206;SDS011;2117;47.972;7.830;2024-02-26T02:58:51;1.70;;;0.70;;
4206;SDS011;2117;47.972;7.830;2024-02-26T03:01:17;1.30;;;0.80;;
4206;SDS011;2117;47.972;7.830;2024-02-26T03:03:42;2.10;;;0.80;;
4206;SDS011;2117;47.972;7.830;2024-02-26T03:06:08;2.70;;;0.70;;
4206;SDS011;2117;47.972;7.830;2024-02-26T03:08:33;1.10;;;0.60;;
4206;SDS011;2117;47.972;7.830;2024-02-26T03:11:03;1.00;;;0.50;;
4206;SDS011;2117;47.972;7.830;2024-02-26T03:13:29;1.60;;;0.83;;
4206;SDS011;2117;47.972;7.830;2024-02-26T03:15:54;1.70;;;1.00;;
4206;SDS011;2117;47.972;7.830;2024-02-26T03:18:20;2.03;;;0.80;;
4206;SDS011;2117;47.972;7.830;2024-02-26T03:20:45;4.07;;;1.10;;
4206;SDS011;2117;47.972;7.830;2024-02-26T03:23:11;2.73;;;0.90;;
4206;SDS011;2117;47.972;7.830;2024-02-26T03:25:41;1.90;;;0.70;;
4206;SDS011;2117;47.972;7.830;2024-02-26T03:28:07;1.87;;;0.97;;
4206;SDS011;2117;47.972;7.830;2024-02-26T03:30:33;2.00;;;0.80;;
4206;SDS011;2117;47.972;7.830;2024-02-26T03:32:58;3.10;;;1.00;;
4206;SDS011;2117;47.972;7.830;2024-02-26T03:35:24;2.17;;;0.90;;
4206;SDS011;2117;47.972;7.830;2024-02-26T03:37:49;2.20;;;0.97;;
4206;SDS011;2117;47.972;7.830;2024-02-26T03:40:16;1.87;;;0.87;;
4206;SDS011;2117;47.972;7.830;2024-02-26T03:42:44;1.20;;;0.80;;
4206;SDS011;2117;47.972;7.830;2024-02-26T03:45:10;1.80;;;1.00;;
4206;SDS011;2117;47.972;7.830;2024-02-26T03:47:37;3.03;;;0.90;;
4206;SDS011;2117;47.972;7.830;2024-02-26T03:50:03;1.70;;;0.97;;
4206;SDS011;2117;47.972;7.830;2024-02-26T03:52:29;2.20;;;1.23;;
4206;SDS011;2117;47.972;7.830;2024-02-26T03:54:55;1.50;;;0.90;;
4206;SDS011;2117;47.972;7.830;2024-02-26T03:57:20;1.40;;;1.00;;
4206;SDS011;2117;47.972;7.830;2024-02-26T03:59:46;2.40;;;1.17;;
4206;SDS011;2117;47.972;7.830;2024-02-26T04:02:12;4.00;;;0.87;;
4206;SDS011;2117;47.972;7.830;2024-02-26T04:04:37;6.30;;;0.90;;
4206;SDS011;2117;47.972;7.830;2024-02-26T04:07:03;2.17;;;0.87;;
4206;SDS011;2117;47.972;7.830;2024-02-26T04:09:30;1.70;;;1.07;;
4206;SDS011;2117;47.972;7.830;2024-02-26T04:11:56;3.40;;;0.90;;
4206;SDS011;2117;47.972;7.830;2024-02-26T04:14:22;2.07;;;1.00;;
4206;SDS011;2117;47.972;7.830;2024-02-26T04:16:47;3.57;;;0.90;;
4206;SDS011;2117;47.972;7.830;2024-02-26T04:19:16;1.63;;;0.93;;
4206;SDS011;2117;47.972;7.830;2024-02-26T04:21:42;2.10;;;0.90;;
4206;SDS011;2117;47.972;7.830;2024-02-26T04:24:08;2.40;;;0.80;;
4206;SDS011;2117;47.972;7.830;2024-02-26T04:26:33;1.80;;;1.00;;
4206;SDS011;2117;47.972;7.830;2024-02-26T04:28:59;1.47;;;0.90;;
4206;SDS011;2117;47.972;7.830;2024-02-26T04:31:24;1.90;;;0.83;;
4206;SDS011;2117;47.972;7.830;2024-02-26T04:33:51;1.80;;;1.30;;
4206;SDS011;2117;47.972;7.830;2024-02-26T04:36:17;2.90;;;1.00;;
4206;SDS011;2117;47.972;7.830;2024-02-26T04:38:45;1.50;;;0.93;;
4206;SDS011;2117;47.972;7.830;2024-02-26T04:41:11;2.17;;;1.03;;
4206;SDS011;2117;47.972;7.830;2024-02-26T04:43:37;2.10;;;1.33;;
4206;SDS011;2117;47.972;7.830;2024-02-26T04:46:06;3.90;;;1.40;;
4206;SDS011;2117;47.972;7.830;2024-02-26T04:48:35;1.90;;;1.30;;
4206;SDS011;2117;47.972;7.830;2024-02-26T04:51:01;1.60;;;1.20;;
4206;SDS011;2117;47.972;7.830;2024-02-26T04:53:28;3.20;;;1.30;;
4206;SDS011;2117;47.972;7.830;2024-02-26T04:55:53;1.70;;;1.10;;
4206;SDS011;2117;47.972;7.830;2024-02-26T04:58:19;2.40;;;1.13;;
4206;SDS011;2117;47.972;7.830;2024-02-26T05:00:45;2.07;;;1.10;;
4206;SDS011;2117;47.972;7.830;2024-02-26T05:03:10;1.67;;;1.13;;
4206;SDS011;2117;47.972;7.830;2024-02-26T05:05:40;2.20;;;1.00;;
4206;SDS011;2117;47.972;7.830;2024-02-26T05:08:09;4.80;;;1.20;;
4206;SDS011;2117;47.972;7.830;2024-02-26T05:10:35;4.23;;;1.93;;
4206;SDS011;2117;47.972;7.830;2024-02-26T05:13:04;4.00;;;1.80;;
4206;SDS011;2117;47.972;7.830;2024-02-26T05:15:30;2.10;;;1.30;;
4206;SDS011;2117;47.972;7.830;2024-02-26T05:17:56;8.33;;;4.20;;
4206;SDS011;2117;47.972;7.830;2024-02-26T05:20:21;5.70;;;3.10;;
4206;SDS011;2117;47.972;7.830;2024-02-26T05:22:47;3.37;;;2.20;;
4206;SDS011;2117;47.972;7.830;2024-02-26T05:25:14;4.07;;;1.73;;
4206;SDS011;2117;47.972;7.830;2024-02-26T05:27:41;2.33;;;1.43;;
4206;SDS011;2117;47.972;7.830;2024-02-26T05:30:07;2.37;;;1.47;;
4206;SDS011;2117;47.972;7.830;2024-02-26T05:32:32;2.30;;;1.23;;
4206;SDS011;2117;47.972;7.830;2024-02-26T05:34:58;7.37;;;1.43;;
4206;SDS011;2117;47.972;7.830;2024-02-26T05:37:23;2.17;;;1.43;;
4206;SDS011;2117;47.972;7.830;2024-02-26T05:39:49;3.33;;;1.70;;
4206;SDS011;2117;47.972;7.830;2024-02-26T05:42:15;2.00;;;1.33;;
4206;SDS011;2117;47.972;7.830;2024-02-26T05:44:40;2.17;;;1.40;;
4206;SDS011;2117;47.972;7.830;2024-02-26T05:47:06;2.30;;;1.80;;
4206;SDS011;2117;47.972;7.830;2024-02-26T05:49:31;2.37;;;1.60;;
4206;SDS011;2117;47.972;7.830;2024-02-26T05:51:58;1.70;;;1.00;;
4206;SDS011;2117;47.972;7.830;2024-02-26T05:54:24;2.30;;;1.27;;
4206;SDS011;2117;47.972;7.830;2024-02-26T05:56:49;1.80;;;1.33;;
4206;SDS011;2117;47.972;7.830;2024-02-26T05:59:15;2.27;;;1.60;;
4206;SDS011;2117;47.972;7.830;2024-02-26T06:01:41;1.70;;;1.17;;
4206;SDS011;2117;47.972;7.830;2024-02-26T06:04:06;1.87;;;1.33;;
4206;SDS011;2117;47.972;7.830;2024-02-26T06:06:32;2.43;;;1.37;;
4206;SDS011;2117;47.972;7.830;2024-02-26T06:08:58;2.17;;;1.00;;
4206;SDS011;2117;47.972;7.830;2024-02-26T06:11:23;2.33;;;1.20;;
4206;SDS011;2117;47.972;7.830;2024-02-26T06:13:49;1.43;;;0.83;;
4206;SDS011;2117;47.972;7.830;2024-02-26T06:16:15;1.87;;;0.80;;
4206;SDS011;2117;47.972;7.830;2024-02-26T06:18:41;1.27;;;0.60;;
4206;SDS011;2117;47.972;7.830;2024-02-26T06:21:10;1.20;;;0.60;;
4206;SDS011;2117;47.972;7.830;2024-02-26T06:23:36;2.10;;;1.37;;
4206;SDS011;2117;47.972;7.830;2024-02-26T06:26:02;5.77;;;3.70;;
4206;SDS011;2117;47.972;7.830;2024-02-26T06:28:27;7.80;;;4.90;;
4206;SDS011;2117;47.972;7.830;2024-02-26T06:30:55;8.15;;;5.50;;
4206;SDS011;2117;47.972;7.830;2024-02-26T06:33:21;6.63;;;5.23;;
4206;SDS011;2117;47.972;7.830;2024-02-26T06:35:46;7.33;;;5.07;;
4206;SDS011;2117;47.972;7.830;2024-02-26T06:38:12;5.63;;;3.83;;
4206;SDS011;2117;47.972;7.830;2024-02-26T06:40:38;5.33;;;3.57;;
4206;SDS011;2117;47.972;7.830;2024-02-26T06:43:04;4.27;;;3.00;;
4206;SDS011;2117;47.972;7.830;2024-02-26T06:45:30;4.23;;;2.80;;
4206;SDS011;2117;47.972;7.830;2024-02-26T06:47:55;5.70;;;2.67;;
4206;SDS011;2117;47.972;7.830;2024-02-26T06:50:21;5.30;;;2.57;;
4206;SDS011;2117;47.972;7.830;2024-02-26T06:52:47;3.43;;;1.93;;
4206;SDS011;2117;47.972;7.830;2024-02-26T06:55:12;2.73;;;1.90;;
4206;SDS011;2117;47.972;7.830;2024-02-26T06:57:38;6.60;;;1.70;;
4206;SDS011;2117;47.972;7.830;2024-02-26T07:00:04;2.30;;;1.47;;
4206;SDS011;2117;47.972;7.830;2024-02-26T07:02:30;2.00;;;1.13;;
4206;SDS011;2117;47.972;7.830;2024-02-26T07:04:56;2.40;;;0.90;;
4206;SDS011;2117;47.972;7.830;2024-02-26T07:07:23;2.53;;;1.13;;
4206;SDS011;2117;47.972;7.830;2024-02-26T07:09:49;1.70;;;1.03;;
4206;SDS011;2117;47.972;7.830;2024-02-26T07:12:15;2.43;;;1.60;;
4206;SDS011;2117;47.972;7.830;2024-02-26T07:14:41;2.73;;;1.73;;
4206;SDS011;2117;47.972;7.830;2024-02-26T07:17:07;3.60;;;2.73;;
4206;SDS011;2117;47.972;7.830;2024-02-26T07:19:33;2.90;;;2.37;;
4206;SDS011;2117;47.972;7.830;2024-02-26T07:21:59;3.53;;;2.80;;
4206;SDS011;2117;47.972;7.830;2024-02-26T07:24:26;3.57;;;2.80;;
4206;SDS011;2117;47.972;7.830;2024-02-26T07:26:52;4.53;;;2.87;;
4206;SDS011;2117;47.972;7.830;2024-02-26T07:29:20;2.83;;;1.90;;
4206;SDS011;2117;47.972;7.830;2024-02-26T07:31:46;3.20;;;1.90;;
4206;SDS011;2117;47.972;7.830;2024-02-26T07:34:11;2.43;;;1.70;;
4206;SDS011;2117;47.972;7.830;2024-02-26T07:36:37;2.57;;;1.50;;
4206;SDS011;2117;47.972;7.830;2024-02-26T07:39:03;2.60;;;1.70;;
4206;SDS011;2117;47.972;7.830;2024-02-26T07:41:28;2.10;;;1.40;;
4206;SDS011;2117;47.972;7.830;2024-02-26T07:43:54;4.37;;;1.57;;
4206;SDS011;2117;47.972;7.830;2024-02-26T07:46:19;1.80;;;1.07;;
4206;SDS011;2117;47.972;7.830;2024-02-26T07:48:45;3.10;;;1.00;;
4206;SDS011;2117;47.972;7.830;2024-02-26T07:51:13;3.10;;;1.63;;
4206;SDS011;2117;47.972;7.830;2024-02-26T07:53:39;4.53;;;2.80;;
4206;SDS011;2117;47.972;7.830;2024-02-26T07:56:05;6.77;;;3.60;;
4206;SDS011;2117;47.972;7.830;2024-02-26T07:58:32;7.33;;;3.63;;
4206;SDS011;2117;47.972;7.830;2024-02-26T08:00:58;5.70;;;3.47;;
4206;SDS011;2117;47.972;7.830;2024-02-26T08:03:23;5.37;;;2.40;;
4206;SDS011;2117;47.972;7.830;2024-02-26T08:05:49;6.93;;;3.07;;
4206;SDS011;2117;47.972;7.830;2024-02-26T08:08:15;2.53;;;1.77;;
4206;SDS011;2117;47.972;7.830;2024-02-26T08:10:41;2.70;;;1.70;;
4206;SDS011;2117;47.972;7.830;2024-02-26T08:13:06;3.50;;;1.90;;
4206;SDS011;2117;47.972;7.830;2024-02-26T08:15:32;2.90;;;1.97;;
4206;SDS011;2117;47.972;7.830;2024-02-26T08:17:59;5.40;;;1.90;;
4206;SDS011;2117;47.972;7.830;2024-02-26T08:20:27;2.90;;;1.53;;
4206;SDS011;2117;47.972;7.830;2024-02-26T08:22:53;5.23;;;1.57;;
4206;SDS011;2117;47.972;7.830;2024-02-26T08:25:19;3.13;;;2.17;;
4206;SDS011;2117;47.972;7.830;2024-02-26T08:27:45;3.50;;;1.83;;
4206;SDS011;2117;47.972;7.830;2024-02-26T08:30:12;2.20;;;1.50;;
4206;SDS011;2117;47.972;7.830;2024-02-26T08:32:41;4.50;;;2.70;;
4206;SDS011;2117;47.972;7.830;2024-02-26T08:35:07;7.07;;;3.93;;
4206;SDS011;2117;47.972;7.830;2024-02-26T08:37:33;5.33;;;3.17;;
4206;SDS011;2117;47.972;7.830;2024-02-26T08:39:59;3.60;;;2.43;;
4206;SDS011;2117;47.972;7.830;2024-02-26T08:42:24;2.57;;;2.03;;
4206;SDS011;2117;47.972;7.830;2024-02-26T08:44:50;3.87;;;2.57;;
4206;SDS011;2117;47.972;7.830;2024-02-26T08:47:15;5.27;;;2.30;;
4206;SDS011;2117;47.972;7.830;2024-02-26T08:49:44;3.63;;;1.90;;
4206;SDS011;2117;47.972;7.830;2024-02-26T08:52:10;4.10;;;2.20;;
4206;SDS011;2117;47.972;7.830;2024-02-26T08:54:36;2.40;;;1.60;;
4206;SDS011;2117;47.972;7.830;2024-02-26T08:57:02;3.93;;;2.30;;
4206;SDS011;2117;47.972;7.830;2024-02-26T08:59:28;2.33;;;1.60;;
4206;SDS011;2117;47.972;7.830;2024-02-26T09:01:54;3.83;;;1.90;;
4206;SDS011;2117;47.972;7.830;2024-02-26T09:04:19;2.30;;;1.60;;
4206;SDS011;2117;47.972;7.830;2024-02-26T09:06:46;2.93;;;1.93;;
4206;SDS011;2117;47.972;7.830;2024-02-26T09:09:12;2.40;;;1.40;;
4206;SDS011;2117;47.972;7.830;2024-02-26T09:11:37;2.00;;;1.47;;
4206;SDS011;2117;47.972;7.830;2024-02-26T09:14:03;7.83;;;2.13;;
4206;SDS011;2117;47.972;7.830;2024-02-26T09:16:29;4.13;;;2.40;;
4206;SDS011;2117;47.972;7.830;2024-02-26T09:18:55;4.00;;;2.70;;
4206;SDS011;2117;47.972;7.830;2024-02-26T09:21:21;5.10;;;2.70;;
4206;SDS011;2117;47.972;7.830;2024-02-26T09:23:49;4.83;;;2.47;;
4206;SDS011;2117;47.972;7.830;2024-02-26T09:26:15;4.60;;;2.80;;
4206;SDS011;2117;47.972;7.830;2024-02-26T09:28:41;3.27;;;2.30;;
4206;SDS011;2117;47.972;7.830;2024-02-26T09:31:07;3.60;;;2.27;;
4206;SDS011;2117;47.972;7.830;2024-02-26T09:33:32;4.33;;;2.40;;
4206;SDS011;2117;47.972;7.830;2024-02-26T09:35:58;3.77;;;2.13;;
4206;SDS011;2117;47.972;7.830;2024-02-26T09:38:25;3.17;;;2.30;;
4206;SDS011;2117;47.972;7.830;2024-02-26T09:40:51;2.70;;;2.20;;
4206;SDS011;2117;47.972;7.830;2024-02-26T09:43:17;2.90;;;2.27;;
4206;SDS011;2117;47.972;7.830;2024-02-26T09:45:51;2.80;;;2.10;;
4206;SDS011;2117;47.972;7.830;2024-02-26T09:48:18;3.00;;;2.57;;
4206;SDS011;2117;47.972;7.830;2024-02-26T09:50:44;4.47;;;2.20;;
4206;SDS011;2117;47.972;7.830;2024-02-26T09:53:11;3.97;;;2.70;;
4206;SDS011;2117;47.972;7.830;2024-02-26T09:55:39;5.10;;;4.60;;
4206;SDS011;2117;47.972;7.830;2024-02-26T09:58:05;5.17;;;2.50;;
4206;SDS011;2117;47.972;7.830;2024-02-26T10:00:32;4.10;;;2.30;;
4206;SDS011;2117;47.972;7.830;2024-02-26T10:03:03;3.53;;;2.63;;
4206;SDS011;2117;47.972;7.830;2024-02-26T10:05:30;13.00;;;10.80;;
4206;SDS011;2117;47.972;7.830;2024-02-26T10:07:58;5.57;;;3.30;;
4206;SDS011;2117;47.972;7.830;2024-02-26T10:10:26;4.53;;;3.03;;
4206;SDS011;2117;47.972;7.830;2024-02-26T10:12:54;6.20;;;3.07;;
4206;SDS011;2117;47.972;7.830;2024-02-26T10:15:19;4.33;;;3.57;;
4206;SDS011;2117;47.972;7.830;2024-02-26T10:17:45;4.60;;;3.07;;
4206;SDS011;2117;47.972;7.830;2024-02-26T10:20:14;3.27;;;2.47;;
4206;SDS011;2117;47.972;7.830;2024-02-26T10:22:41;5.63;;;4.03;;
4206;SDS011;2117;47.972;7.830;2024-02-26T10:25:07;5.10;;;3.30;;
4206;SDS011;2117;47.972;7.830;2024-02-26T10:27:33;4.10;;;3.00;;
4206;SDS011;2117;47.972;7.830;2024-02-26T10:30:03;3.87;;;2.70;;
4206;SDS011;2117;47.972;7.830;2024-02-26T10:32:30;3.00;;;2.17;;
4206;SDS011;2117;47.972;7.830;2024-02-26T10:34:56;5.47;;;2.70;;
4206;SDS011;2117;47.972;7.830;2024-02-26T10:37:22;4.67;;;2.50;;
4206;SDS011;2117;47.972;7.830;2024-02-26T10:39:48;4.20;;;2.00;;
4206;SDS011;2117;47.972;7.830;2024-02-26T10:42:14;3.77;;;2.60;;
4206;SDS011;2117;47.972;7.830;2024-02-26T10:44:40;3.57;;;2.60;;
4206;SDS011;2117;47.972;7.830;2024-02-26T10:47:07;5.00;;;3.10;;
4206;SDS011;2117;47.972;7.830;2024-02-26T10:49:34;5.43;;;2.47;;
4206;SDS011;2117;47.972;7.830;2024-02-26T10:52:00;4.23;;;3.00;;
4206;SDS011;2117;47.972;7.830;2024-02-26T10:54:29;5.00;;;2.90;;
4206;SDS011;2117;47.972;7.830;2024-02-26T10:56:56;4.73;;;2.90;;
4206;SDS011;2117;47.972;7.830;2024-02-26T10:59:22;3.70;;;2.40;;
4206;SDS011;2117;47.972;7.830;2024-02-26T11:01:48;5.73;;;2.70;;
4206;SDS011;2117;47.972;7.830;2024-02-26T11:04:15;3.43;;;2.60;;
4206;SDS011;2117;47.972;7.830;2024-02-26T11:06:42;6.53;;;3.13;;
4206;SDS011;2117;47.972;7.830;2024-02-26T11:09:10;4.50;;;2.50;;
4206;SDS011;2117;47.972;7.830;2024-02-26T11:11:38;6.23;;;3.00;;
4206;SDS011;2117;47.972;7.830;2024-02-26T11:14:05;6.13;;;2.70;;
4206;SDS011;2117;47.972;7.830;2024-02-26T11:16:33;3.20;;;2.20;;
4206;SDS011;2117;47.972;7.830;2024-02-26T11:19:00;5.63;;;2.30;;
4206;SDS011;2117;47.972;7.830;2024-02-26T11:21:28;4.10;;;1.80;;
4206;SDS011;2117;47.972;7.830;2024-02-26T11:24:08;3.47;;;2.10;;
4206;SDS011;2117;47.972;7.830;2024-02-26T11:26:41;3.43;;;1.23;;
4206;SDS011;2117;47.972;7.830;2024-02-26T11:29:14;2.63;;;1.60;;
4206;SDS011;2117;47.972;7.830;2024-02-26T11:31:44;2.80;;;1.73;;
4206;SDS011;2117;47.972;7.830;2024-02-26T11:34:09;7.43;;;2.03;;
4206;SDS011;2117;47.972;7.830;2024-02-26T11:36:36;3.70;;;1.30;;
4206;SDS011;2117;47.972;7.830;2024-02-26T11:39:03;3.40;;;1.23;;
4206;SDS011;2117;47.972;7.830;2024-02-26T11:41:29;2.33;;;1.43;;
4206;SDS011;2117;47.972;7.830;2024-02-26T11:44:00;1.80;;;1.27;;
4206;SDS011;2117;47.972;7.830;2024-02-26T11:48:55;3.77;;;1.30;;
4206;SDS011;2117;47.972;7.830;2024-02-26T11:51:26;4.80;;;3.00;;
4206;SDS011;2117;47.972;7.830;2024-02-26T11:53:53;4.40;;;2.30;;
4206;SDS011;2117;47.972;7.830;2024-02-26T11:56:20;3.50;;;2.03;;
4206;SDS011;2117;47.972;7.830;2024-02-26T12:01:35;4.90;;;2.43;;
4206;SDS011;2117;47.972;7.830;2024-02-26T12:04:11;4.40;;;2.50;;
4206;SDS011;2117;47.972;7.830;2024-02-26T12:06:54;5.77;;;2.23;;
4206;SDS011;2117;47.972;7.830;2024-02-26T12:09:37;4.07;;;2.47;;
4206;SDS011;2117;47.972;7.830;2024-02-26T12:12:07;3.10;;;2.20;;
4206;SDS011;2117;47.972;7.830;2024-02-26T12:14:34;3.50;;;2.00;;
4206;SDS011;2117;47.972;7.830;2024-02-26T12:17:26;3.40;;;2.10;;
4206;SDS011;2117;47.972;7.830;2024-02-26T12:19:52;3.93;;;2.20;;
4206;SDS011;2117;47.972;7.830;2024-02-26T12:22:18;4.77;;;2.50;;
4206;SDS011;2117;47.972;7.830;2024-02-26T12:24:44;4.40;;;2.87;;
4206;SDS011;2117;47.972;7.830;2024-02-26T12:27:10;3.53;;;1.90;;
4206;SDS011;2117;47.972;7.830;2024-02-26T12:29:35;4.00;;;2.40;;
4206;SDS011;2117;47.972;7.830;2024-02-26T12:32:01;8.40;;;2.00;;
4206;SDS011;2117;47.972;7.830;2024-02-26T12:34:29;4.70;;;2.20;;
4206;SDS011;2117;47.972;7.830;2024-02-26T12:36:54;5.17;;;2.90;;
4206;SDS011;2117;47.972;7.830;2024-02-26T12:39:20;5.33;;;2.00;;
4206;SDS011;2117;47.972;7.830;2024-02-26T12:41:46;3.07;;;1.93;;
4206;SDS011;2117;47.972;7.830;2024-02-26T12:44:17;3.70;;;2.07;;
4206;SDS011;2117;47.972;7.830;2024-02-26T12:46:43;3.07;;;1.80;;
4206;SDS011;2117;47.972;7.830;2024-02-26T12:49:10;2.30;;;1.60;;
4206;SDS011;2117;47.972;7.830;2024-02-26T12:51:40;5.57;;;2.40;;
4206;SDS011;2117;47.972;7.830;2024-02-26T12:54:06;3.77;;;1.67;;
4206;SDS011;2117;47.972;7.830;2024-02-26T12:56:32;5.20;;;2.00;;
4206;SDS011;2117;47.972;7.830;2024-02-26T12:58:58;2.67;;;1.80;;
4206;SDS011;2117;47.972;7.830;2024-02-26T13:01:24;5.37;;;2.20;;
4206;SDS011;2117;47.972;7.830;2024-02-26T13:03:51;3.00;;;1.70;;
4206;SDS011;2117;47.972;7.830;2024-02-26T13:06:18;2.93;;;1.80;;
4206;SDS011;2117;47.972;7.830;2024-02-26T13:08:45;3.47;;;1.80;;
4206;SDS011;2117;47.972;7.830;2024-02-26T13:11:11;3.80;;;1.80;;
4206;SDS011;2117;47.972;7.830;2024-02-26T13:13:37;4.40;;;1.93;;
4206;SDS011;2117;47.972;7.830;2024-02-26T13:16:07;5.17;;;1.90;;
4206;SDS011;2117;47.972;7.830;2024-02-26T13:18:35;5.00;;;2.03;;
4206;SDS011;2117;47.972;7.830;2024-02-26T13:21:08;3.20;;;2.10;;
4206;SDS011;2117;47.972;7.830;2024-02-26T13:23:40;3.97;;;1.73;;
4206;SDS011;2117;47.972;7.830;2024-02-26T13:26:07;3.13;;;2.10;;
4206;SDS011;2117;47.972;7.830;2024-02-26T13:28:33;8.20;;;5.70;;
4206;SDS011;2117;47.972;7.830;2024-02-26T13:30:59;3.83;;;2.20;;
4206;SDS011;2117;47.972;7.830;2024-02-26T13:33:26;7.33;;;2.50;;
4206;SDS011;2117;47.972;7.830;2024-02-26T13:35:57;4.63;;;1.80;;
4206;SDS011;2117;47.972;7.830;2024-02-26T13:38:23;2.20;;;1.53;;
4206;SDS011;2117;47.972;7.830;2024-02-26T13:40:49;4.27;;;1.73;;
4206;SDS011;2117;47.972;7.830;2024-02-26T13:43:16;4.33;;;1.70;;
4206;SDS011;2117;47.972;7.830;2024-02-26T13:45:41;2.50;;;1.53;;
4206;SDS011;2117;47.972;7.830;2024-02-26T13:48:08;2.30;;;1.47;;
4206;SDS011;2117;47.972;7.830;2024-02-26T13:50:38;5.30;;;4.37;;
4206;SDS011;2117;47.972;7.830;2024-02-26T13:53:04;3.37;;;1.90;;
4206;SDS011;2117;47.972;7.830;2024-02-26T13:55:30;2.70;;;1.90;;
4206;SDS011;2117;47.972;7.830;2024-02-26T13:57:57;2.63;;;1.63;;
4206;SDS011;2117;47.972;7.830;2024-02-26T14:00:23;5.50;;;1.90;;
4206;SDS011;2117;47.972;7.830;2024-02-26T14:02:52;2.53;;;1.30;;
4206;SDS011;2117;47.972;7.830;2024-02-26T14:05:17;4.20;;;1.70;;
4206;SDS011;2117;47.972;7.830;2024-02-26T14:07:43;2.80;;;1.53;;
4206;SDS011;2117;47.972;7.830;2024-02-26T14:10:08;3.50;;;1.53;;
4206;SDS011;2117;47.972;7.830;2024-02-26T14:12:37;2.37;;;1.50;;
4206;SDS011;2117;47.972;7.830;2024-02-26T14:15:04;2.80;;;1.90;;
4206;SDS011;2117;47.972;7.830;2024-02-26T14:17:33;2.70;;;1.43;;
4206;SDS011;2117;47.972;7.830;2024-02-26T14:19:58;2.33;;;1.53;;
4206;SDS011;2117;47.972;7.830;2024-02-26T14:22:24;3.53;;;1.80;;
4206;SDS011;2117;47.972;7.830;2024-02-26T14:24:51;4.53;;;1.67;;
4206;SDS011;2117;47.972;7.830;2024-02-26T14:27:17;2.23;;;1.37;;
4206;SDS011;2117;47.972;7.830;2024-02-26T14:29:43;3.33;;;1.70;;
4206;SDS011;2117;47.972;7.830;2024-02-26T14:32:09;3.00;;;1.50;;
4206;SDS011;2117;47.972;7.830;2024-02-26T14:34:35;3.83;;;1.37;;
4206;SDS011;2117;47.972;7.830;2024-02-26T14:37:00;5.90;;;1.80;;
4206;SDS011;2117;47.972;7.830;2024-02-26T14:39:26;2.80;;;1.30;;
4206;SDS011;2117;47.972;7.830;2024-02-26T14:41:52;3.00;;;1.30;;
4206;SDS011;2117;47.972;7.830;2024-02-26T14:44:18;2.53;;;1.60;;
4206;SDS011;2117;47.972;7.830;2024-02-26T14:46:43;2.90;;;1.43;;
4206;SDS011;2117;47.972;7.830;2024-02-26T14:49:09;3.23;;;1.40;;
4206;SDS011;2117;47.972;7.830;2024-02-26T14:51:36;7.50;;;1.57;;
4206;SDS011;2117;47.972;7.830;2024-02-26T14:54:02;2.50;;;1.50;;
4206;SDS011;2117;47.972;7.830;2024-02-26T14:56:27;4.63;;;1.30;;
4206;SDS011;2117;47.972;7.830;2024-02-26T14:58:53;6.07;;;1.50;;
4206;SDS011;2117;47.972;7.830;2024-02-26T15:01:18;2.20;;;1.43;;
4206;SDS011;2117;47.972;7.830;2024-02-26T15:03:44;2.40;;;1.43;;
4206;SDS011;2117;47.972;7.830;2024-02-26T15:06:10;5.17;;;1.40;;
4206;SDS011;2117;47.972;7.830;2024-02-26T15:08:35;3.93;;;1.63;;
4206;SDS011;2117;47.972;7.830;2024-02-26T15:11:02;7.50;;;1.50;;
4206;SDS011;2117;47.972;7.830;2024-02-26T15:13:28;2.63;;;1.60;;
4206;SDS011;2117;47.972;7.830;2024-02-26T15:15:54;1.97;;;1.30;;